Latest Weather Observations for Evans Head

IDN60801

Issued at 10:02 am EDT Sunday 7 February 2016 (issued every 30 minutes, with the page automatically refreshed every 10 minutes)

About weather observations | Map of weather stations | Latest weather observations for NSW | Other Formats
Station Details ID: 058212 Name: EVANS HEAD RAAF BOMBING RANGE AWS Lat: -29.18 Lon: 153.40 Height: 62.5 m
Data from the previous 72 hours. | See also: Recent months at Evans Head
Date/Time
EDT
Temp
°C
App
Temp
°C
Dew
Point
Rel
Hum
%
Delta-T
°C
Wind Press
QNH
hPa
Press
MSL
hPa
Rain
since 9 am
mm
Dir
 
Spd
km/h
Gust
km/h
Spd
kts
Gust
kts
07/10:00am 21.7 21.1 19.8 89 1.2 S 22 37 12 20 1015.2 1014.9 0.0
07/09:30am 21.3 20.8 19.9 92 0.9 S 22 33 12 18 1015.0 1014.7 0.0
07/09:00am 20.6 20.4 19.8 95 0.5 SSW 20 30 11 16 1015.0 1014.7 16.6
07/08:30am 20.0 19.3 19.5 97 0.3 SSW 22 30 12 16 1014.9 1014.6 16.6
07/08:00am 20.0 19.7 19.5 97 0.3 SSW 20 28 11 15 1014.8 1014.5 16.6
07/07:30am 20.0 19.9 19.5 97 0.3 SSW 19 24 10 13 1014.6 1014.3 16.6
07/07:00am 19.9 20.1 19.4 97 0.3 SSW 17 24 9 13 1014.2 1013.9 16.6
07/06:30am 20.3 20.8 20.0 98 0.2 S 17 30 9 16 1013.8 1013.5 16.6
07/06:00am 20.2 20.6 19.9 98 0.2 SSW 17 28 9 15 1013.6 1013.2 16.6
07/05:30am 19.8 20.1 19.5 98 0.2 SSW 17 26 9 14 1013.4 1013.0 16.6
07/05:00am 20.1 19.9 19.8 98 0.2 SSW 20 32 11 17 1013.1 1012.8 16.6
07/04:30am 20.1 19.9 19.8 98 0.2 SSW 20 28 11 15 1013.0 1012.7 16.6
07/04:00am 20.1 19.5 19.8 98 0.2 SSW 22 33 12 18 1012.7 1012.4 16.6
07/03:30am 20.2 19.7 19.9 98 0.2 SSW 22 32 12 17 1012.6 1012.3 16.6
07/03:00am 20.4 20.4 20.2 99 0.1 S 20 28 11 15 1012.4 1012.1 16.6
07/02:30am 20.2 20.3 20.0 99 0.1 S 19 28 10 15 1012.7 1012.4 16.6
07/02:00am 20.6 20.7 20.3 98 0.2 SSW 20 30 11 16 1013.4 1013.0 16.6
07/01:30am 21.6 20.9 21.1 97 0.3 SSE 26 39 14 21 1013.4 1013.0 16.6
07/01:00am 21.5 20.9 21.2 98 0.2 SSE 26 39 14 21 1013.7 1013.4 16.6
07/12:30am 21.4 20.0 21.2 99 0.1 SSE 30 43 16 23 1014.2 1013.9 16.6
07/12:00am 21.6 21.5 21.4 99 0.1 SSE 24 32 13 17 1014.2 1013.9 16.6
 
Date/Time
EDT
Temp
°C
App
Temp
°C
Dew
Point
Rel
Hum
%
Delta-T
°C
Wind Press
QNH
hPa
Press
MSL
hPa
Rain
since 9 am
mm
Dir
 
Spd
km/h
Gust
km/h
Spd
kts
Gust
kts
06/11:30pm 21.4 20.5 21.4 100 0.0 SSE 28 37 15 20 1014.4 1014.1 16.6
06/11:02pm 21.8 20.6 21.6 99 0.1 SE 30 52 16 28 1014.2 1013.9 15.2
06/11:00pm 22.0 21.3 21.8 99 0.1 SE 28 37 15 20 1014.3 1014.0 15.0
06/10:30pm 21.7 22.7 21.7 100 0.0 SE 19 30 10 16 1014.2 1013.9 15.0
06/10:00pm 21.3 21.9 21.3 100 0.0 SE 20 28 11 15 1014.0 1013.7 14.8
06/09:30pm 21.4 21.3 21.4 100 0.0 SSE 24 32 13 17 1014.1 1013.8 14.8
06/09:00pm 21.4 20.1 21.4 100 0.0 SE 30 41 16 22 1013.7 1013.4 14.8
06/08:30pm 21.2 20.6 21.2 100 0.0 SSE 26 37 14 20 1013.5 1013.1 14.6
06/08:00pm 21.3 22.8 21.3 100 0.0 SE 15 24 8 13 1013.4 1013.0 13.0
06/07:30pm 20.9 20.9 20.9 100 0.0 SSE 22 33 12 18 1013.1 1012.8 13.0
06/07:00pm 20.9 20.5 20.9 100 0.0 SE 24 33 13 18 1012.7 1012.4 12.8
06/06:30pm 21.5 21.8 21.5 100 0.0 SE 22 30 12 16 1012.0 1011.7 7.6
06/06:07pm 21.3 20.3 21.3 100 0.0 SE 28 46 15 25 1011.8 1011.5 7.6
06/06:00pm 21.8 22.6 21.8 100 0.0 SSE 20 43 11 23 1011.8 1011.5 7.4
06/05:42pm 21.8 21.1 21.8 100 0.0 SSE 28 46 15 25 1011.6 1011.3 7.0
06/05:30pm 21.7 21.6 21.5 99 0.1 SSE 24 35 13 19 1011.6 1011.3 7.0
06/05:17pm 21.5 20.2 21.3 99 0.1 SSE 30 48 16 26 1011.6 1011.3 7.0
06/05:00pm 21.3 21.1 21.3 100 0.0 SE 24 43 13 23 1011.6 1011.3 7.0
06/04:30pm 21.9 22.3 21.7 99 0.1 SE 22 33 12 18 1011.6 1011.3 5.8
06/04:15pm 22.5 21.9 22.0 97 0.3 SSE 28 52 15 28 1011.5 1011.2 3.8
06/04:00pm 25.2 25.2 23.8 92 1.0 SSE 30 39 16 21 1011.5 1011.2 3.0
06/03:30pm 24.1 24.3 23.4 96 0.5 SSE 28 46 15 25 1011.4 1011.1 3.0
06/03:00pm 25.0 25.4 23.8 93 0.8 SSE 28 41 15 22 1011.7 1011.4 3.0
06/02:30pm 25.0 24.7 23.8 93 0.8 SSE 32 43 17 23 1011.8 1011.5 3.0
06/02:00pm 24.5 24.3 24.0 97 0.3 SSE 32 44 17 24 1012.0 1011.7 3.0
06/01:30pm 24.2 24.7 23.9 98 0.2 S 28 39 15 21 1012.2 1011.9 3.0
06/01:00pm 24.1 24.5 23.8 98 0.2 S 28 44 15 24 1012.4 1012.1 3.0
06/12:30pm 22.8 22.1 22.5 98 0.2 S 30 43 16 23 1012.8 1012.5 3.0
06/12:00pm 24.5 25.6 24.3 99 0.1 S 26 39 14 21 1012.9 1012.6 3.0
06/11:30am 23.2 23.2 23.0 99 0.1 S 28 41 15 22 1013.1 1012.8 3.0
06/11:00am 22.3 23.0 22.3 100 0.0 S 22 32 12 17 1013.3 1012.9 2.8
06/10:30am 22.2 22.9 22.2 100 0.0 SSE 22 33 12 18 1013.4 1013.0 2.6
06/10:00am 23.3 23.8 23.3 100 0.0 SSE 26 41 14 22 1013.1 1012.8 2.0
06/09:30am 21.9 22.4 21.9 100 0.0 SSE 22 32 12 17 1012.8 1012.5 2.0
06/09:00am 21.9 21.3 21.9 100 0.0 SSE 28 37 15 20 1012.6 1012.3 12.0
06/08:30am 21.6 20.8 21.6 100 0.0 SSE 28 43 15 23 1012.7 1012.4 11.6
06/08:00am 21.8 20.7 21.8 100 0.0 SSE 30 44 16 24 1012.4 1012.1 9.0
06/07:47am 22.0 21.0 22.0 100 0.0 SSE 30 48 16 26 1012.3 1012.0 9.0
06/07:30am 21.7 20.9 21.7 100 0.0 SSE 28 39 15 21 1012.1 1011.8 9.0
06/07:00am 21.1 19.3 21.1 100 0.0 SSE 32 48 17 26 1011.8 1011.5 8.6
06/06:32am 20.9 18.4 20.9 100 0.0 SSE 35 54 19 29 1011.4 1011.1 7.6
06/06:30am 20.9 18.0 20.9 100 0.0 SSE 37 54 20 29 1011.4 1011.1 7.6
06/06:24am 21.2 19.2 21.2 100 0.0 SSE 33 54 18 29 1011.2 1010.9 7.6
06/06:00am 21.4 19.2 21.4 100 0.0 SSE 35 48 19 26 1010.8 1010.5 7.4
06/05:30am 20.9 19.4 20.9 100 0.0 SSE 30 46 16 25 1010.7 1010.4 7.4
06/05:09am 21.2 19.4 21.2 100 0.0 SSE 32 50 17 27 1010.5 1010.2 7.2
06/05:00am 20.8 18.8 20.8 100 0.0 SSE 32 43 17 23 1010.4 1010.1 7.2
06/04:30am 20.8 20.7 20.8 100 0.0 S 22 30 12 16 1010.4 1010.1 7.2
06/04:00am 20.9 20.5 20.9 100 0.0 S 24 37 13 20 1010.4 1010.1 7.2
06/03:30am 21.0 21.4 21.0 100 0.0 S 20 32 11 17 1010.6 1010.3 6.8
06/03:00am 21.3 20.2 21.1 99 0.1 SSE 28 41 15 22 1010.9 1010.6 4.0
06/02:41am 21.6 19.3 21.3 98 0.2 SSE 35 54 19 29 1010.9 1010.6 2.4
06/02:30am 22.2 20.6 21.9 98 0.2 SSE 33 46 18 25 1010.8 1010.5 1.2
06/02:00am 22.4 20.9 22.1 98 0.2 SSE 33 50 18 27 1011.1 1010.8 1.2
06/01:30am 22.8 22.4 22.3 97 0.3 SSE 28 43 15 23 1011.3 1011.0 1.2
06/01:00am 22.0 21.6 21.7 98 0.2 S 26 39 14 21 1011.6 1011.3 1.2
06/12:30am 22.2 21.2 21.9 98 0.2 SSE 30 46 16 25 1011.9 1011.6 1.2
06/12:13am 22.6 21.3 22.1 97 0.3 SSE 32 50 17 27 1012.1 1011.8 1.2
06/12:00am 22.6 21.1 22.1 97 0.3 SSE 33 48 18 26 1012.3 1012.0 1.2
 
Date/Time
EDT
Temp
°C
App
Temp
°C
Dew
Point
Rel
Hum
%
Delta-T
°C
Wind Press
QNH
hPa
Press
MSL
hPa
Rain
since 9 am
mm
Dir
 
Spd
km/h
Gust
km/h
Spd
kts
Gust
kts
05/11:30pm 22.2 20.2 21.9 98 0.2 SSE 35 48 19 26 1012.5 1012.2 1.2
05/11:02pm 21.8 20.0 21.5 98 0.2 SSE 33 52 18 28 1012.7 1012.4 1.2
05/11:00pm 21.9 19.8 21.6 98 0.2 SSE 35 52 19 28 1012.7 1012.4 1.2
05/10:30pm 22.9 21.5 22.2 96 0.5 SSE 33 48 18 26 1012.6 1012.3 1.0
05/10:00pm 23.0 21.5 21.8 93 0.8 SSE 32 44 17 24 1012.6 1012.3 1.0
05/09:46pm 22.6 21.1 20.9 90 1.1 SSE 30 48 16 26 1012.6 1012.3 1.0
05/09:30pm 22.6 21.3 22.1 97 0.3 SSE 32 46 17 25 1012.4 1012.1 1.0
05/09:00pm 22.3 20.9 22.0 98 0.2 SSE 32 44 17 24 1012.2 1011.9 0.8
05/08:30pm 22.0 21.2 21.7 98 0.2 SSE 28 43 15 23 1011.9 1011.6 0.8
05/08:09pm 23.6 22.2 22.0 91 1.1 SSE 32 52 17 28 1011.7 1011.4 0.8
05/08:00pm 23.7 21.9 21.6 88 1.4 SSE 33 46 18 25 1011.6 1011.3 0.4
05/07:30pm 23.5 21.9 21.6 89 1.3 SSE 32 44 17 24 1011.2 1010.9 0.4
05/07:00pm 23.7 22.1 21.6 88 1.4 SSE 32 46 17 25 1010.8 1010.5 0.4
05/06:30pm 24.0 21.9 20.9 83 2.0 SSE 33 48 18 26 1010.5 1010.2 0.4
05/06:00pm 24.0 22.2 22.3 90 1.1 SSE 35 50 19 27 1010.1 1009.8 0.4
05/05:30pm 23.7 22.8 23.2 97 0.3 SSE 33 46 18 25 1010.1 1009.8 0.4
05/05:12pm 24.3 23.3 22.6 90 1.1 S 32 50 17 27 1010.1 1009.8 0.4
05/05:00pm 24.9 23.1 22.2 85 1.8 S 35 50 19 27 1010.0 1009.7 0.4
05/04:30pm 24.1 23.3 23.1 94 0.7 S 32 44 17 24 1010.2 1009.9 0.4
05/04:07pm 23.8 22.2 22.6 93 0.8 S 35 54 19 29 1010.1 1009.8 0.4
05/04:00pm 24.2 22.2 22.6 91 1.1 S 37 52 20 28 1010.1 1009.8 0.4
05/03:46pm 24.7 22.9 22.2 86 1.7 SSE 35 54 19 29 1010.2 1009.9 0.4
05/03:30pm 26.0 23.9 23.1 84 2.0 SSE 39 54 21 29 1010.2 1009.9 0.4
05/03:00pm 25.4 22.9 22.3 83 2.1 S 39 61 21 33 1010.4 1010.1 0.4
05/02:30pm 25.5 23.7 22.2 82 2.2 S 35 54 19 29 1010.5 1010.2 0.4
05/02:07pm 26.0 24.3 23.1 84 2.0 S 37 56 20 30 1010.7 1010.4 0.4
05/02:00pm 24.6 21.5 21.9 85 1.8 SSE 41 56 22 30 1010.7 1010.4 0.4
05/01:30pm 25.2 23.3 22.1 83 2.1 SSE 35 57 19 31 1010.8 1010.5 0.4
05/01:06pm 25.3 23.9 22.2 83 2.1 SSE 33 52 18 28 1010.8 1010.5 0.4
05/01:00pm 26.3 25.3 23.6 85 1.9 SSE 35 52 19 28 1010.8 1010.5 0.4
05/12:30pm 25.0 22.3 22.7 87 1.6 SSE 41 59 22 32 1010.7 1010.4 0.4
05/12:08pm 25.3 23.8 24.1 93 0.8 SSE 39 57 21 31 1010.7 1010.4 0.4
05/12:00pm 24.6 22.7 24.1 97 0.3 SSE 41 57 22 31 1010.8 1010.5 0.4
05/11:30am 23.4 22.1 23.2 99 0.1 SSE 35 57 19 31 1010.9 1010.6 0.4
05/11:00am 22.7 21.0 22.5 99 0.1 SSE 35 54 19 29 1011.0 1010.7 0.4
05/10:58am 22.8 21.2 22.6 99 0.1 SSE 35 54 19 29 1011.0 1010.7 0.4
05/10:55am 22.3 20.1 22.1 99 0.1 SSE 37 54 20 29 1011.0 1010.7 0.4
05/10:30am 22.5 22.8 22.2 98 0.2 S 24 35 13 19 1010.8 1010.5 0.2
05/10:00am 22.0 20.9 21.7 98 0.2 S 30 43 16 23 1010.8 1010.5 0.2
05/09:30am 22.7 21.3 22.2 97 0.3 SSE 33 54 18 29 1010.6 1010.3 0.0
05/09:24am 23.4 22.3 22.4 94 0.7 S 32 52 17 28 1010.5 1010.2 0.0
05/09:00am 23.0 21.4 21.8 93 0.8 S 33 46 18 25 1010.2 1009.9 0.4
05/08:30am 23.6 22.5 22.4 93 0.8 S 32 44 17 24 1009.9 1009.6 0.4
05/08:00am 23.4 24.1 22.9 97 0.3 S 24 35 13 19 1009.5 1009.2 0.4
05/07:30am 21.9 22.6 21.6 98 0.2 S 20 30 11 16 1009.3 1009.0 0.4
05/07:00am 20.9 20.7 20.6 98 0.2 S 22 32 12 17 1009.0 1008.7 0.4
05/06:30am 20.6 20.9 20.3 98 0.2 S 19 28 10 15 1008.5 1008.2 0.4
05/06:00am 20.8 20.2 20.5 98 0.2 S 24 33 13 18 1007.9 1007.6 0.4
05/05:30am 20.9 21.1 20.6 98 0.2 SSW 20 28 11 15 1008.0 1007.7 0.4
05/05:00am 20.5 20.7 20.2 98 0.2 S 19 30 10 16 1007.6 1007.3 0.4
05/04:30am 20.4 21.2 19.9 97 0.3 SSW 15 22 8 12 1007.7 1007.4 0.4
05/04:00am 20.5 21.4 20.0 97 0.3 SSW 15 20 8 11 1007.8 1007.5 0.4
05/03:30am 20.8 21.4 20.3 97 0.3 SSW 17 24 9 13 1007.8 1007.5 0.4
05/03:00am 21.2 21.6 20.7 97 0.3 S 19 24 10 13 1008.0 1007.7 0.4
05/02:30am 21.4 21.9 20.9 97 0.3 S 19 26 10 14 1008.2 1007.9 0.4
05/02:00am 21.4 22.4 21.1 98 0.2 S 17 22 9 12 1008.5 1008.2 0.4
05/01:30am 21.2 22.2 21.0 99 0.1 SSW 17 24 9 13 1008.8 1008.5 0.4
05/01:00am 21.1 22.4 20.9 99 0.1 SSW 15 22 8 12 1009.1 1008.8 0.4
05/12:30am 20.8 20.2 20.5 98 0.2 S 24 35 13 19 1009.6 1009.3 0.4
05/12:00am 22.2 21.6 21.9 98 0.2 S 28 39 15 21 1009.6 1009.3 0.2
 
Date/Time
EDT
Temp
°C
App
Temp
°C
Dew
Point
Rel
Hum
%
Delta-T
°C
Wind Press
QNH
hPa
Press
MSL
hPa
Rain
since 9 am
mm
Dir
 
Spd
km/h
Gust
km/h
Spd
kts
Gust
kts
04/11:30pm 22.4 23.0 22.1 98 0.2 S 22 32 12 17 1009.7 1009.4 0.2
04/11:00pm 22.4 22.2 22.1 98 0.2 S 26 37 14 20 1009.6 1009.3 0.2
04/10:30pm 22.6 21.7 22.1 97 0.3 S 30 41 16 22 1009.7 1009.4 0.2
04/10:00pm 22.9 22.5 22.4 97 0.3 S 28 41 15 22 1009.5 1009.2 0.2
04/09:30pm 22.7 23.8 22.4 98 0.2 S 20 32 11 17 1009.4 1009.1 0.2
04/09:00pm 22.5 23.7 22.2 98 0.2 S 19 30 10 16 1009.3 1009.0 0.2
04/08:30pm 22.8 23.2 22.5 98 0.2 S 24 41 13 22 1008.9 1008.6 0.2
04/08:00pm 23.0 23.9 22.7 98 0.2 S 22 33 12 18 1008.5 1008.2 0.2
04/07:30pm 23.2 24.6 22.9 98 0.2 S 20 30 11 16 1008.3 1008.0 0.2
04/07:00pm 23.3 25.0 23.0 98 0.2 S 19 28 10 15 1007.9 1007.6 0.2
04/06:30pm 23.6 25.3 23.1 97 0.3 S 19 30 10 16 1007.5 1007.2 0.2
04/06:00pm 23.8 25.6 23.3 97 0.3 S 19 26 10 14 1007.0 1006.7 0.2
04/05:30pm 23.0 23.9 22.7 98 0.2 SSE 22 28 12 15 1006.9 1006.6 0.2
04/05:00pm 23.0 23.5 22.7 98 0.2 S 24 32 13 17 1006.9 1006.6 0.2
04/04:30pm 22.4 23.0 22.1 98 0.2 S 22 33 12 18 1007.0 1006.7 0.2
04/04:00pm 23.8 25.1 22.6 93 0.8 S 20 30 11 16 1007.4 1007.1 0.0
04/03:30pm 25.8 27.0 22.1 80 2.5 S 19 28 10 15 1007.3 1007.0 0.0
04/03:00pm 27.2 29.6 21.5 71 3.8 SSE 11 17 6 9 1007.5 1007.2 0.0
04/02:30pm 27.0 29.2 21.1 70 3.9 SE 11 17 6 9 1008.0 1007.7 0.0
04/02:00pm 25.7 29.9 22.4 82 2.2 ENE 4 9 2 5 1008.0 1007.7 0.0
04/01:30pm 23.8 28.1 23.3 97 0.3 N 6 9 3 5 1008.3 1008.0 0.0
04/01:00pm 22.9 26.4 22.2 96 0.5 ENE 7 13 4 7 1008.2 1007.9 0.0
04/12:30pm 22.2 24.3 21.7 97 0.3 E 13 19 7 10 1008.1 1007.8 0.0
04/12:00pm 21.6 22.4 21.3 98 0.2 SE 19 24 10 13 1007.9 1007.6 0.0
04/11:30am 22.3 23.7 21.8 97 0.3 SE 17 26 9 14 1008.0 1007.7 0.0
04/11:00am 23.7 23.3 21.0 85 1.8 SSE 24 33 13 18 1007.8 1007.5 0.0
04/10:30am 24.5 22.8 19.8 75 3.0 S 28 39 15 21 1007.7 1007.4 0.0

Other Formats:

Comma delimited format used in spreadsheet applications
http://www.bom.gov.au/fwo/IDN60801/IDN60801.94598.axf

JavaScript Object Notation format (JSON) in row-major order
http://www.bom.gov.au/fwo/IDN60801/IDN60801.94598.json